Time;durP1;ratioP1;P1;durP2;ratioP2;P2;SDS_P1;SDS_P2;PMS_P1;PMS_P2;Temp;Humidity;BMP_temperature;BMP_pressure;BME280_temperature;BME280_humidity;BME280_pressure;Samples;Min_cycle;Max_cycle;Signal;HPM_P1;HPM_P2
2021/11/15 00:01:27;;;;;;;;;;;24.10;37.10;;;;;;5058338;28;19908;-82
2021/11/15 00:03:53;;;;;;;;;;;24.10;37.50;;;;;;5057858;28;19919;-82
2021/11/15 00:06:18;;;;;;;;;;;24.30;38.40;;;;;;5075438;28;19915;-82
2021/11/15 00:08:44;;;;;;;;;;;24.50;38.60;;;;;;5057917;28;19908;-80
2021/11/15 00:11:09;;;;;;;;;;;24.80;38.70;;;;;;5074589;28;20288;-76
2021/11/15 00:13:37;;;;;;;;;;;24.90;38.60;;;;;;5075413;28;20007;-80
2021/11/15 00:16:03;;;;;;;;;;;25.00;38.60;;;;;;5058038;28;19909;-80
2021/11/15 00:18:28;;;;;;;;;;;25.10;38.70;;;;;;5057963;28;20360;-77
2021/11/15 00:20:57;;;;;;;;;;;25.10;38.70;;;;;;5057919;28;19909;-82
2021/11/15 00:23:22;;;;;;;;;;;25.20;38.70;;;;;;5057580;28;20065;-77
2021/11/15 00:25:50;;;;;;;;;;;25.30;39.40;;;;;;5057550;28;19966;-79
2021/11/15 00:28:16;;;;;;;;;;;25.30;38.90;;;;;;5057653;28;20268;-79
2021/11/15 00:30:44;;;;;;;;;;;25.30;39.60;;;;;;5040925;28;19913;-80
2021/11/15 00:33:12;;;;;;;;;;;25.40;39.20;;;;;;5057869;28;19909;-78
2021/11/15 00:35:37;;;;;;;;;;;25.40;39.30;;;;;;5057591;28;19909;-77
2021/11/15 00:38:05;;;;;;;;;;;25.40;39.30;;;;;;5040705;28;19974;-80
2021/11/15 00:40:31;;;;;;;;;;;25.40;39.40;;;;;;5040817;28;20409;-78
2021/11/15 00:42:59;;;;;;;;;;;25.50;39.50;;;;;;5057535;28;20011;-79
2021/11/15 00:45:24;;;;;;;;;;;25.50;39.60;;;;;;5062316;28;20352;-80
2021/11/15 00:47:50;;;;;;;;;;;25.50;39.60;;;;;;5064600;28;20014;-79
2021/11/15 00:50:17;;;;;;;;;;;25.50;39.70;;;;;;5064540;28;19930;-79
2021/11/15 00:52:45;;;;;;;;;;;25.50;39.70;;;;;;5047691;28;19920;-79
2021/11/15 00:55:10;;;;;;;;;;;25.60;39.80;;;;;;5047542;28;19908;-78
2021/11/15 00:57:38;;;;;;;;;;;25.60;39.80;;;;;;5081473;28;19908;-78
2021/11/15 01:00:07;;;;;;;;;;;25.60;39.80;;;;;;5064677;28;19965;-81
2021/11/15 01:02:35;;;;;;;;;;;25.60;40.00;;;;;;5047524;28;19923;-76
2021/11/15 01:05:00;;;;;;;;;;;25.60;40.10;;;;;;5063916;28;20007;-82
2021/11/15 01:07:26;;;;;;;;;;;25.60;40.10;;;;;;5063908;28;20491;-76
2021/11/15 01:09:51;;;;;;;;;;;25.60;40.20;;;;;;5081321;28;20082;-82
2021/11/15 01:12:18;;;;;;;;;;;25.60;39.90;;;;;;5081878;28;19908;-86
2021/11/15 01:14:56;;;;;;;;;;;25.60;40.90;;;;;;5064793;28;20003;-88
2021/11/15 01:17:22;;;;;;;;;;;25.60;41.20;;;;;;5048478;28;19908;-89
2021/11/15 01:19:47;;;;;;;;;;;25.50;41.60;;;;;;5048347;28;20412;-90
2021/11/15 01:22:15;;;;;;;;;;;25.50;42.00;;;;;;5049126;28;19926;-84
2021/11/15 01:24:43;;;;;;;;;;;25.60;42.40;;;;;;5065301;28;20214;-87
2021/11/15 01:27:09;;;;;;;;;;;25.60;41.00;;;;;;5048302;28;20249;-85
2021/11/15 01:29:34;;;;;;;;;;;25.70;41.70;;;;;;5047489;28;19921;-84
2021/11/15 01:32:02;;;;;;;;;;;25.80;41.70;;;;;;5048021;28;19915;-83
2021/11/15 01:34:33;;;;;;;;;;;25.80;41.50;;;;;;5049024;28;19938;-86
2021/11/15 01:36:58;;;;;;;;;;;25.90;41.30;;;;;;5048748;28;19909;-85
2021/11/15 01:39:26;;;;;;;;;;;25.90;41.20;;;;;;5047396;28;19935;-87
2021/11/15 01:41:55;;;;;;;;;;;26.00;41.20;;;;;;5047523;28;19908;-86
2021/11/15 01:44:23;;;;;;;;;;;26.00;41.30;;;;;;5047953;28;20329;-87
2021/11/15 01:46:48;;;;;;;;;;;26.00;41.40;;;;;;5047428;28;19912;-86
2021/11/15 01:49:14;;;;;;;;;;;26.00;41.10;;;;;;5047583;28;19909;-86
2021/11/15 01:51:39;;;;;;;;;;;26.10;41.10;;;;;;5047327;28;19909;-87
2021/11/15 01:54:05;;;;;;;;;;;26.10;41.00;;;;;;5047237;28;20007;-89
2021/11/15 01:56:31;;;;;;;;;;;26.10;41.00;;;;;;5045454;28;19908;-85
2021/11/15 01:58:58;;;;;;;;;;;26.10;40.90;;;;;;5044640;28;20325;-86
2021/11/15 02:01:26;;;;;;;;;;;26.10;40.90;;;;;;5061049;28;20333;-85
2021/11/15 02:03:52;;;;;;;;;;;26.10;40.90;;;;;;5044372;28;20281;-87
2021/11/15 02:06:20;;;;;;;;;;;26.10;40.90;;;;;;5044302;28;19954;-84
2021/11/15 02:08:48;;;;;;;;;;;26.10;40.90;;;;;;5044096;28;19916;-84
2021/11/15 02:11:13;;;;;;;;;;;26.10;40.90;;;;;;5044003;28;19919;-89
2021/11/15 02:13:40;;;;;;;;;;;26.00;40.90;;;;;;5043973;28;19908;-85
2021/11/15 02:16:06;;;;;;;;;;;26.00;40.90;;;;;;5044570;28;19974;-87
2021/11/15 02:18:31;;;;;;;;;;;26.00;40.90;;;;;;5044074;28;19908;-84
2021/11/15 02:21:03;;;;;;;;;;;26.00;41.00;;;;;;5044085;28;19920;-84
2021/11/15 02:23:29;;;;;;;;;;;25.90;41.00;;;;;;5044625;28;19913;-89
2021/11/15 02:25:55;;;;;;;;;;;26.00;41.70;;;;;;5044088;28;19940;-87
2021/11/15 02:28:25;;;;;;;;;;;25.90;41.10;;;;;;5043160;28;20025;-86
2021/11/15 02:30:53;;;;;;;;;;;25.90;41.10;;;;;;5043715;28;20359;-87
2021/11/15 02:33:21;;;;;;;;;;;25.90;41.20;;;;;;5043891;28;19908;-88
2021/11/15 02:35:46;;;;;;;;;;;25.90;41.20;;;;;;5043799;28;20395;-86
2021/11/15 02:38:14;;;;;;;;;;;25.90;41.20;;;;;;5043823;28;19916;-89
2021/11/15 02:40:40;;;;;;;;;;;25.80;41.20;;;;;;5043770;28;19908;-88
2021/11/15 02:43:05;;;;;;;;;;;25.80;41.30;;;;;;5043481;28;19923;-86
2021/11/15 02:45:34;;;;;;;;;;;25.80;41.30;;;;;;5043345;28;19962;-87
2021/11/15 02:47:59;;;;;;;;;;;25.80;41.30;;;;;;5043733;28;19958;-88
2021/11/15 02:50:28;;;;;;;;;;;25.80;41.40;;;;;;5043544;28;19952;-88
2021/11/15 02:53:00;;;;;;;;;;;25.70;41.40;;;;;;5043206;28;19908;-88
2021/11/15 02:55:26;;;;;;;;;;;25.70;41.40;;;;;;5060175;28;20314;-88
2021/11/15 02:57:52;;;;;;;;;;;25.70;41.40;;;;;;5043403;28;19919;-90
2021/11/15 03:00:26;;;;;;;;;;;25.70;41.60;;;;;;5043575;28;19923;-86
2021/11/15 03:02:52;;;;;;;;;;;25.70;41.50;;;;;;5043675;28;20336;-86
2021/11/15 03:05:21;;;;;;;;;;;25.70;41.60;;;;;;5042925;28;20050;-89
2021/11/15 03:07:47;;;;;;;;;;;25.70;41.60;;;;;;5042249;28;20030;-86
2021/11/15 03:10:12;;;;;;;;;;;25.60;41.60;;;;;;5042412;28;19995;-87
2021/11/15 03:12:38;;;;;;;;;;;25.60;41.60;;;;;;5042705;28;19999;-87
2021/11/15 03:15:04;;;;;;;;;;;25.60;42.30;;;;;;5059579;28;19921;-82
2021/11/15 03:17:29;;;;;;;;;;;25.60;41.70;;;;;;5042523;28;19908;-86
2021/11/15 03:19:57;;;;;;;;;;;25.60;41.70;;;;;;5042598;28;19967;-85
2021/11/15 03:22:23;;;;;;;;;;;25.60;41.70;;;;;;5042722;28;19920;-86
2021/11/15 03:24:48;;;;;;;;;;;25.60;41.80;;;;;;5042263;28;19912;-86
2021/11/15 03:27:14;;;;;;;;;;;25.60;41.80;;;;;;5042372;28;19916;-86
2021/11/15 03:29:39;;;;;;;;;;;25.60;41.80;;;;;;5026124;28;19921;-84
2021/11/15 03:32:06;;;;;;;;;;;25.60;41.80;;;;;;5019199;28;19913;-89
2021/11/15 03:34:31;;;;;;;;;;;25.50;41.70;;;;;;5019418;28;20369;-85
2021/11/15 03:36:57;;;;;;;;;;;25.60;41.90;;;;;;5038762;28;19916;-85
2021/11/15 03:39:23;;;;;;;;;;;25.50;42.00;;;;;;5019285;28;20326;-85
2021/11/15 03:41:51;;;;;;;;;;;25.50;41.90;;;;;;5019263;28;20338;-87
2021/11/15 03:44:20;;;;;;;;;;;25.50;41.90;;;;;;5019103;28;19917;-84
2021/11/15 03:46:45;;;;;;;;;;;25.50;41.90;;;;;;5019727;28;20377;-88
2021/11/15 03:49:14;;;;;;;;;;;25.50;41.90;;;;;;5018793;28;19916;-87
2021/11/15 03:51:40;;;;;;;;;;;25.50;41.90;;;;;;5019123;28;19916;-85
2021/11/15 03:54:06;;;;;;;;;;;25.50;42.00;;;;;;5018641;28;19917;-88
2021/11/15 03:56:32;;;;;;;;;;;25.50;41.90;;;;;;5018863;28;19916;-84
2021/11/15 03:58:58;;;;;;;;;;;25.50;41.90;;;;;;5018950;28;19964;-84
2021/11/15 04:01:29;;;;;;;;;;;25.40;41.90;;;;;;5018847;28;20008;-86
2021/11/15 04:04:00;;;;;;;;;;;25.50;42.00;;;;;;5019239;28;19913;-85
2021/11/15 04:06:29;;;;;;;;;;;25.40;41.80;;;;;;5019332;28;20326;-87
2021/11/15 04:08:55;;;;;;;;;;;25.50;42.00;;;;;;5018722;28;19970;-87
2021/11/15 04:11:23;;;;;;;;;;;25.40;41.90;;;;;;5018587;28;19916;-85
2021/11/15 04:13:49;;;;;;;;;;;25.40;41.90;;;;;;5018766;28;19910;-87
2021/11/15 04:16:15;;;;;;;;;;;25.40;42.00;;;;;;5018656;28;19955;-82
2021/11/15 04:18:45;;;;;;;;;;;25.40;42.10;;;;;;5018217;28;20278;-87
2021/11/15 04:21:12;;;;;;;;;;;25.40;42.10;;;;;;5017935;28;19909;-87
2021/11/15 04:23:40;;;;;;;;;;;25.40;42.10;;;;;;5018459;28;19921;-85
2021/11/15 04:26:05;;;;;;;;;;;25.40;42.20;;;;;;5018697;28;19916;-84
2021/11/15 04:28:31;;;;;;;;;;;25.40;42.10;;;;;;5018489;28;20345;-86
2021/11/15 04:30:56;;;;;;;;;;;25.40;42.20;;;;;;5018189;28;19910;-88
2021/11/15 04:33:23;;;;;;;;;;;25.30;42.10;;;;;;5018519;28;19909;-88
2021/11/15 04:35:49;;;;;;;;;;;25.40;42.20;;;;;;5018194;28;19909;-86
2021/11/15 04:38:17;;;;;;;;;;;25.40;42.20;;;;;;5018582;28;19959;-87
2021/11/15 04:40:43;;;;;;;;;;;25.30;42.20;;;;;;5018335;28;20334;-86
2021/11/15 04:43:08;;;;;;;;;;;25.30;42.20;;;;;;5018272;28;19963;-86
2021/11/15 04:45:34;;;;;;;;;;;25.30;42.30;;;;;;5017968;28;19982;-86
2021/11/15 04:48:02;;;;;;;;;;;25.40;42.30;;;;;;5018489;28;20350;-86
2021/11/15 04:50:28;;;;;;;;;;;25.40;42.30;;;;;;5018850;28;19940;-85
2021/11/15 04:52:53;;;;;;;;;;;25.30;42.20;;;;;;5018295;28;19932;-86
2021/11/15 04:55:22;;;;;;;;;;;25.40;42.30;;;;;;5034669;28;19967;-85
2021/11/15 04:57:47;;;;;;;;;;;25.30;42.20;;;;;;5018092;28;19963;-87
2021/11/15 05:00:18;;;;;;;;;;;25.30;42.20;;;;;;5017966;28;20505;-85
2021/11/15 05:02:46;;;;;;;;;;;25.30;42.30;;;;;;5018976;28;19936;-89
2021/11/15 05:05:12;;;;;;;;;;;25.30;42.30;;;;;;5018221;28;19943;-86
2021/11/15 05:07:38;;;;;;;;;;;25.30;42.30;;;;;;5034780;28;19948;-86
2021/11/15 05:10:03;;;;;;;;;;;25.30;42.30;;;;;;5017712;28;19909;-88
2021/11/15 05:12:34;;;;;;;;;;;25.30;42.30;;;;;;5017760;28;19909;-86
2021/11/15 05:15:00;;;;;;;;;;;25.30;42.40;;;;;;5018559;28;19909;-86
2021/11/15 05:17:25;;;;;;;;;;;25.20;42.30;;;;;;5017787;28;19914;-88
2021/11/15 05:19:56;;;;;;;;;;;25.30;42.40;;;;;;5018043;28;19952;-87
2021/11/15 05:22:21;;;;;;;;;;;25.20;42.40;;;;;;5018081;28;20315;-85
2021/11/15 05:24:47;;;;;;;;;;;25.20;42.40;;;;;;5018100;28;19915;-90
2021/11/15 05:27:12;;;;;;;;;;;25.20;42.50;;;;;;5018580;28;19931;-87
2021/11/15 05:29:40;;;;;;;;;;;25.30;42.60;;;;;;5017816;28;19929;-85
2021/11/15 05:32:06;;;;;;;;;;;25.20;42.50;;;;;;5019522;28;19913;-89
2021/11/15 05:34:32;;;;;;;;;;;25.30;42.50;;;;;;5021677;28;19966;-83
2021/11/15 05:36:57;;;;;;;;;;;25.30;42.60;;;;;;5021235;28;19947;-84
2021/11/15 05:39:23;;;;;;;;;;;24.80;34.80;;;;;;5021829;28;19909;-85
2021/11/15 05:41:57;;;;;;;;;;;23.50;39.40;;;;;;5022255;28;19915;-85
2021/11/15 05:44:22;;;;;;;;;;;23.50;40.70;;;;;;5023205;28;19913;-88
2021/11/15 05:46:50;;;;;;;;;;;23.80;41.50;;;;;;5021458;28;19915;-88
2021/11/15 05:49:16;;;;;;;;;;;24.10;41.60;;;;;;5021701;28;19913;-90
2021/11/15 05:51:44;;;;;;;;;;;24.30;41.90;;;;;;5021717;28;19915;-88
2021/11/15 05:54:10;;;;;;;;;;;24.50;41.70;;;;;;5021811;28;19959;-90
2021/11/15 05:56:38;;;;;;;;;;;24.70;42.00;;;;;;5021616;28;20301;-87
2021/11/15 05:59:06;;;;;;;;;;;24.80;42.20;;;;;;5022037;28;19920;-87
2021/11/15 06:01:33;;;;;;;;;;;24.90;42.10;;;;;;5038830;28;19920;-86
2021/11/15 06:03:58;;;;;;;;;;;25.00;42.30;;;;;;5022176;28;19967;-91
2021/11/15 06:06:24;;;;;;;;;;;25.10;42.70;;;;;;5021760;28;20324;-89
2021/11/15 06:08:49;;;;;;;;;;;25.10;42.60;;;;;;5022248;28;19919;-86
2021/11/15 06:11:19;;;;;;;;;;;25.10;42.80;;;;;;5021714;28;19913;-90
2021/11/15 06:13:48;;;;;;;;;;;25.20;43.00;;;;;;5021896;28;20270;-88
2021/11/15 06:16:14;;;;;;;;;;;25.20;42.90;;;;;;5021584;28;19920;-87
2021/11/15 06:18:41;;;;;;;;;;;25.20;43.20;;;;;;5022450;28;19909;-85
2021/11/15 06:21:06;;;;;;;;;;;25.20;43.40;;;;;;5022497;28;20322;-89
2021/11/15 06:23:34;;;;;;;;;;;25.30;43.60;;;;;;5023336;28;19961;-88
2021/11/15 06:26:05;;;;;;;;;;;25.20;43.70;;;;;;5023198;28;19921;-90
2021/11/15 06:28:33;;;;;;;;;;;25.20;43.70;;;;;;5028790;28;19977;-90
2021/11/15 06:30:58;;;;;;;;;;;25.20;44.00;;;;;;5044871;28;19909;-90
2021/11/15 06:33:24;;;;;;;;;;;25.30;44.10;;;;;;5044782;28;19961;-92
2021/11/15 06:35:52;;;;;;;;;;;25.30;44.30;;;;;;5044698;28;19909;-88
2021/11/15 06:38:20;;;;;;;;;;;25.30;44.30;;;;;;5044592;28;19908;-87
2021/11/15 06:40:51;;;;;;;;;;;25.30;44.70;;;;;;5048838;28;19938;-91
2021/11/15 06:43:16;;;;;;;;;;;25.30;44.50;;;;;;5044669;28;19978;-91
2021/11/15 06:45:42;;;;;;;;;;;25.30;44.90;;;;;;5044086;28;19909;-90
2021/11/15 06:48:07;;;;;;;;;;;25.30;45.00;;;;;;5044121;28;19915;-89
2021/11/15 06:50:35;;;;;;;;;;;25.30;45.00;;;;;;5044053;28;20003;-91
2021/11/15 06:53:02;;;;;;;;;;;25.30;44.80;;;;;;5044073;28;19948;-88
2021/11/15 06:55:31;;;;;;;;;;;25.30;45.10;;;;;;5044181;28;19909;-88
2021/11/15 06:57:57;;;;;;;;;;;25.30;45.20;;;;;;5044553;28;19912;-89
2021/11/15 07:00:25;;;;;;;;;;;25.30;45.20;;;;;;5044422;28;19991;-91
2021/11/15 07:02:54;;;;;;;;;;;25.30;45.30;;;;;;5060616;28;19935;-92
2021/11/15 07:05:21;;;;;;;;;;;25.30;45.50;;;;;;5044494;28;19908;-91
2021/11/15 07:07:47;;;;;;;;;;;25.30;45.50;;;;;;5044395;28;20218;-90
2021/11/15 07:10:13;;;;;;;;;;;25.30;45.50;;;;;;5043622;28;19908;-90
2021/11/15 07:12:41;;;;;;;;;;;25.30;45.60;;;;;;5043677;28;19908;-88
2021/11/15 07:15:07;;;;;;;;;;;25.30;45.70;;;;;;5043631;28;19908;-89
2021/11/15 07:17:35;;;;;;;;;;;25.30;45.70;;;;;;5044490;28;19915;-91
2021/11/15 07:20:02;;;;;;;;;;;25.30;45.80;;;;;;5044159;28;20260;-88
2021/11/15 07:22:28;;;;;;;;;;;25.30;45.90;;;;;;5044486;28;20007;-87
2021/11/15 07:25:01;;;;;;;;;;;25.30;46.00;;;;;;5043911;28;20371;-91
2021/11/15 07:27:27;;;;;;;;;;;25.30;45.90;;;;;;5043817;28;19909;-89
2021/11/15 07:29:53;;;;;;;;;;;25.30;46.20;;;;;;5043551;28;19939;-88
2021/11/15 07:32:21;;;;;;;;;;;25.30;46.20;;;;;;5044046;28;19951;-88
2021/11/15 07:34:49;;;;;;;;;;;25.30;46.30;;;;;;5045993;28;19958;-90
2021/11/15 07:37:15;;;;;;;;;;;25.30;46.30;;;;;;5043964;28;19908;-88
2021/11/15 07:39:43;;;;;;;;;;;25.30;46.40;;;;;;5044521;28;20238;-88
2021/11/15 07:42:12;;;;;;;;;;;25.30;46.50;;;;;;5044382;28;20392;-90
2021/11/15 07:44:38;;;;;;;;;;;25.30;46.50;;;;;;5043768;28;19908;-89
2021/11/15 07:47:04;;;;;;;;;;;25.30;46.60;;;;;;5043966;28;19909;-90
2021/11/15 07:49:32;;;;;;;;;;;25.30;46.60;;;;;;5043279;28;20352;-89
2021/11/15 07:52:00;;;;;;;;;;;25.30;46.90;;;;;;5043420;28;19995;-91
2021/11/15 07:54:28;;;;;;;;;;;25.30;46.80;;;;;;5043507;28;19916;-90
2021/11/15 07:56:53;;;;;;;;;;;25.40;47.30;;;;;;5043594;28;19909;-92
2021/11/15 07:59:24;;;;;;;;;;;25.30;47.40;;;;;;5043091;28;19920;-89
2021/11/15 08:01:52;;;;;;;;;;;25.20;47.30;;;;;;5044086;28;19909;-88
2021/11/15 08:04:19;;;;;;;;;;;25.30;47.40;;;;;;5043661;28;19912;-90
2021/11/15 08:06:45;;;;;;;;;;;25.30;47.50;;;;;;5043022;28;20375;-90
2021/11/15 08:09:12;;;;;;;;;;;25.30;47.70;;;;;;5042915;28;19912;-92
2021/11/15 08:11:38;;;;;;;;;;;25.30;47.80;;;;;;5043241;28;19936;-89
2021/11/15 08:14:04;;;;;;;;;;;25.30;48.20;;;;;;5043196;28;19913;-90
2021/11/15 08:16:32;;;;;;;;;;;25.30;48.40;;;;;;5043204;28;19930;-88
2021/11/15 08:18:58;;;;;;;;;;;25.30;48.70;;;;;;5042941;28;19960;-91
2021/11/15 08:21:29;;;;;;;;;;;25.30;48.70;;;;;;5043548;28;19969;-89
2021/11/15 08:23:57;;;;;;;;;;;25.30;48.60;;;;;;5044133;28;20002;-87
2021/11/15 08:26:51;;;;;;;;;;;25.30;48.70;;;;;;5027068;28;20054;-89
2021/11/15 08:29:20;;;;;;;;;;;25.30;48.70;;;;;;5060145;28;19924;-90
2021/11/15 08:31:48;;;;;;;;;;;25.30;49.00;;;;;;5042729;28;19913;-89
2021/11/15 08:34:16;;;;;;;;;;;25.30;49.00;;;;;;5042993;28;19908;-88
2021/11/15 08:36:44;;;;;;;;;;;25.30;48.90;;;;;;5042843;28;19948;-88
2021/11/15 08:39:11;;;;;;;;;;;25.30;48.90;;;;;;5043191;28;20237;-85
2021/11/15 08:41:40;;;;;;;;;;;25.30;49.20;;;;;;5042375;28;19908;-90
2021/11/15 08:44:10;;;;;;;;;;;25.20;49.10;;;;;;5042372;28;19938;-91
2021/11/15 08:46:39;;;;;;;;;;;25.20;50.00;;;;;;5042065;28;19947;-92
2021/11/15 08:49:06;;;;;;;;;;;25.20;49.60;;;;;;5041931;28;19909;-89
2021/11/15 08:51:35;;;;;;;;;;;25.30;49.60;;;;;;5058688;28;19908;-88
2021/11/15 08:54:04;;;;;;;;;;;25.30;49.90;;;;;;5043074;28;20298;-87
2021/11/15 08:56:30;;;;;;;;;;;25.30;50.40;;;;;;5058498;28;20247;-84
2021/11/15 08:58:55;;;;;;;;;;;25.40;50.80;;;;;;5058209;28;19919;-85
2021/11/15 09:01:22;;;;;;;;;;;25.30;50.90;;;;;;5058436;28;20226;-86
2021/11/15 09:03:50;;;;;;;;;;;25.20;44.00;;;;;;5058039;28;19913;-81
2021/11/15 09:06:16;;;;;;;;;;;25.10;44.80;;;;;;5049844;28;19924;-81
2021/11/15 09:08:44;;;;;;;;;;;25.00;45.10;;;;;;5061939;28;19909;-84
2021/11/15 09:11:10;;;;;;;;;;;24.90;45.40;;;;;;5061819;28;19919;-81
2021/11/15 09:13:36;;;;;;;;;;;24.90;45.60;;;;;;5061502;28;19999;-79
2021/11/15 09:16:06;;;;;;;;;;;24.90;45.40;;;;;;5077859;28;20348;-78
2021/11/15 09:18:32;;;;;;;;;;;24.90;45.20;;;;;;5061213;28;19928;-83
2021/11/15 09:20:58;;;;;;;;;;;24.90;45.20;;;;;;5061764;28;19912;-81
2021/11/15 09:23:26;;;;;;;;;;;24.90;45.10;;;;;;5061190;28;19923;-83
2021/11/15 09:25:54;;;;;;;;;;;24.90;45.10;;;;;;5061128;28;19920;-80
2021/11/15 09:28:22;;;;;;;;;;;24.90;45.00;;;;;;5056635;28;19909;-85
2021/11/15 09:30:48;;;;;;;;;;;24.90;45.60;;;;;;5061181;28;19912;-82
2021/11/15 09:33:13;;;;;;;;;;;25.00;51.40;;;;;;5061098;28;19920;-83
2021/11/15 09:35:48;;;;;;;;;;;25.00;46.00;;;;;;5061395;28;20364;-82
2021/11/15 09:38:13;;;;;;;;;;;25.00;45.90;;;;;;5061402;28;19909;-82
2021/11/15 09:40:39;;;;;;;;;;;25.00;45.70;;;;;;5060782;28;20229;-85
2021/11/15 09:43:07;;;;;;;;;;;25.00;45.80;;;;;;5061293;28;19939;-82
2021/11/15 09:45:32;;;;;;;;;;;25.00;45.50;;;;;;5061281;28;19915;-85
2021/11/15 09:47:58;;;;;;;;;;;25.20;45.10;;;;;;5077768;28;19916;-82
2021/11/15 09:50:24;;;;;;;;;;;25.20;44.80;;;;;;5061200;28;19917;-83
2021/11/15 09:52:49;;;;;;;;;;;25.30;44.60;;;;;;5061366;28;20257;-84
2021/11/15 09:55:16;;;;;;;;;;;25.30;44.40;;;;;;5060979;28;19909;-83
2021/11/15 09:57:44;;;;;;;;;;;25.30;44.20;;;;;;5060951;28;20063;-89
2021/11/15 10:00:11;;;;;;;;;;;25.30;44.10;;;;;;5061433;28;19920;-84
2021/11/15 10:02:40;;;;;;;;;;;25.40;44.70;;;;;;5060832;28;20387;-83
2021/11/15 10:05:07;;;;;;;;;;;25.30;44.00;;;;;;5077368;28;19912;-83
2021/11/15 10:07:37;;;;;;;;;;;25.30;44.10;;;;;;5060529;28;19951;-84
2021/11/15 10:10:24;;;;;;;;;;;25.30;44.00;;;;;;5060576;28;20341;-85
2021/11/15 10:13:02;;;;;;;;;;;25.30;43.90;;;;;;5060294;28;19908;-84
2021/11/15 10:15:28;;;;;;;;;;;25.30;43.90;;;;;;5060117;28;19915;-83
2021/11/15 10:17:56;;;;;;;;;;;25.30;43.90;;;;;;5059608;28;19999;-84
2021/11/15 10:20:22;;;;;;;;;;;25.30;43.90;;;;;;5060422;28;19961;-84
2021/11/15 10:22:50;;;;;;;;;;;25.40;43.90;;;;;;5060183;28;20007;-81
2021/11/15 10:25:29;;;;;;;;;;;25.30;44.00;;;;;;5077037;28;19909;-82
2021/11/15 10:28:08;;;;;;;;;;;25.30;44.40;;;;;;5076757;28;19917;-81
2021/11/15 10:30:34;;;;;;;;;;;25.30;44.50;;;;;;5076931;28;19920;-81
2021/11/15 10:33:07;;;;;;;;;;;25.30;44.60;;;;;;5059684;28;19908;-84
2021/11/15 10:35:39;;;;;;;;;;;25.30;44.70;;;;;;5059871;28;20009;-82
2021/11/15 10:38:05;;;;;;;;;;;25.30;44.70;;;;;;5076108;28;20246;-80
2021/11/15 10:40:31;;;;;;;;;;;25.30;44.80;;;;;;5059774;28;19918;-84
2021/11/15 10:42:59;;;;;;;;;;;25.30;44.70;;;;;;5059695;28;20019;-82
2021/11/15 10:45:25;;;;;;;;;;;25.30;44.70;;;;;;5059423;28;19962;-82
2021/11/15 10:47:53;;;;;;;;;;;25.30;44.70;;;;;;5060079;28;19912;-85
2021/11/15 10:50:28;;;;;;;;;;;24.80;37.40;;;;;;5060085;28;20261;-86
2021/11/15 10:53:07;;;;;;;;;;;23.70;40.70;;;;;;5060069;28;19908;-81
2021/11/15 10:55:46;;;;;;;;;;;23.60;67.50;;;;;;5077765;28;19909;-81
2021/11/15 10:58:18;;;;;;;;;;;23.80;44.90;;;;;;5061187;28;19920;-81
2021/11/15 11:00:52;;;;;;;;;;;24.00;41.40;;;;;;5059752;28;19908;-85
2021/11/15 11:03:21;;;;;;;;;;;24.20;41.30;;;;;;5059718;28;19913;-85
2021/11/15 11:05:51;;;;;;;;;;;24.40;41.30;;;;;;5059434;28;19920;-82
2021/11/15 11:08:18;;;;;;;;;;;24.50;41.30;;;;;;5059531;28;19952;-84
2021/11/15 11:10:47;;;;;;;;;;;24.50;41.30;;;;;;5059093;28;19939;-83
2021/11/15 11:13:15;;;;;;;;;;;24.70;41.40;;;;;;5059046;28;19908;-80
2021/11/15 11:15:53;;;;;;;;;;;24.70;41.30;;;;;;5059238;28;19908;-82
2021/11/15 11:18:32;;;;;;;;;;;24.80;41.40;;;;;;5060879;28;19908;-80
2021/11/15 11:24:10;;;;;;;;;;;24.80;41.60;;;;;;5059740;28;19912;-89
2021/11/15 11:26:35;;;;;;;;;;;24.80;44.30;;;;;;5061675;28;19919;-87
2021/11/15 11:29:02;;;;;;;;;;;24.80;45.60;;;;;;5057718;28;19985;-85
2021/11/15 11:31:31;;;;;;;;;;;24.90;46.60;;;;;;5061238;28;20251;-86
2021/11/15 11:33:59;;;;;;;;;;;24.90;46.80;;;;;;5065640;28;19923;-87
2021/11/15 11:36:27;;;;;;;;;;;24.90;47.30;;;;;;5059284;28;20000;-84
2021/11/15 11:38:53;;;;;;;;;;;24.90;47.40;;;;;;5059443;28;20337;-86
2021/11/15 11:41:18;;;;;;;;;;;24.90;47.60;;;;;;5058615;28;19909;-86
2021/11/15 11:43:44;;;;;;;;;;;24.90;47.40;;;;;;5058830;28;20404;-91
2021/11/15 11:46:10;;;;;;;;;;;24.80;47.90;;;;;;5059080;28;19965;-90
2021/11/15 11:48:36;;;;;;;;;;;24.70;48.30;;;;;;5053624;28;19917;-81
2021/11/15 11:51:01;;;;;;;;;;;24.70;48.50;;;;;;5058515;28;20013;-81
2021/11/15 11:53:30;;;;;;;;;;;24.80;48.30;;;;;;5061524;28;19920;-82
2021/11/15 11:55:59;;;;;;;;;;;25.00;47.90;;;;;;5058552;28;19909;-79
2021/11/15 11:58:24;;;;;;;;;;;25.00;47.70;;;;;;5075020;28;19924;-78
2021/11/15 12:00:50;;;;;;;;;;;25.10;48.10;;;;;;5075965;28;19908;-81
2021/11/15 12:03:16;;;;;;;;;;;25.10;47.20;;;;;;5074475;28;20019;-78
2021/11/15 12:05:41;;;;;;;;;;;25.10;47.30;;;;;;5049056;28;19947;-80
2021/11/15 12:08:12;;;;;;;;;;;25.10;47.40;;;;;;5058045;28;19974;-80
2021/11/15 12:10:59;;;;;;;;;;;25.10;47.20;;;;;;5059009;28;19917;-79
2021/11/15 12:13:25;;;;;;;;;;;25.20;47.10;;;;;;5054767;28;19912;-83
2021/11/15 12:15:50;;;;;;;;;;;25.20;47.10;;;;;;5037574;28;19909;-78
2021/11/15 12:18:28;;;;;;;;;;;25.10;47.10;;;;;;5037387;28;19923;-81
2021/11/15 12:21:05;;;;;;;;;;;25.00;47.20;;;;;;5040856;28;19920;-77
2021/11/15 12:23:35;;;;;;;;;;;24.90;47.20;;;;;;5038032;28;19913;-80
2021/11/15 12:26:08;;;;;;;;;;;24.80;47.60;;;;;;5038124;28;20324;-78
2021/11/15 12:28:38;;;;;;;;;;;24.80;48.10;;;;;;5040095;28;20535;-80
2021/11/15 12:31:06;;;;;;;;;;;24.70;48.20;;;;;;5042496;28;19940;-78
2021/11/15 12:33:32;;;;;;;;;;;24.80;48.20;;;;;;5040660;28;20316;-81
2021/11/15 12:36:04;;;;;;;;;;;24.60;48.50;;;;;;5039672;28;19916;-78
2021/11/15 12:38:33;;;;;;;;;;;24.60;48.70;;;;;;5058907;28;19935;-78
2021/11/15 12:40:59;;;;;;;;;;;24.70;48.90;;;;;;5039825;28;19908;-79
2021/11/15 12:43:25;;;;;;;;;;;24.60;48.80;;;;;;5022002;28;19912;-75
2021/11/15 12:45:51;;;;;;;;;;;24.60;48.80;;;;;;5038587;28;19940;-78
2021/11/15 12:48:38;;;;;;;;;;;24.60;48.70;;;;;;5038006;28;19913;-77
2021/11/15 12:51:32;;;;;;;;;;;24.60;48.90;;;;;;5054806;28;19995;-77
2021/11/15 12:53:58;;;;;;;;;;;24.60;48.90;;;;;;5035291;28;19916;-78
2021/11/15 12:56:27;;;;;;;;;;;24.60;48.70;;;;;;5037555;28;19913;-77
2021/11/15 12:58:58;;;;;;;;;;;24.70;49.00;;;;;;5037806;28;19909;-78
2021/11/15 13:01:26;;;;;;;;;;;24.60;49.10;;;;;;5046926;28;19909;-78
2021/11/15 13:03:52;;;;;;;;;;;24.70;49.10;;;;;;5064671;28;19913;-80
2021/11/15 13:06:18;;;;;;;;;;;24.70;49.00;;;;;;5057188;28;20288;-79
2021/11/15 13:08:46;;;;;;;;;;;24.70;49.00;;;;;;5057028;28;20253;-77
2021/11/15 13:11:15;;;;;;;;;;;24.70;49.00;;;;;;5057063;28;20341;-78
2021/11/15 13:13:43;;;;;;;;;;;24.70;49.00;;;;;;5057330;28;19908;-76
2021/11/15 13:16:08;;;;;;;;;;;24.70;49.10;;;;;;5056905;28;20301;-77
2021/11/15 13:18:34;;;;;;;;;;;24.60;49.00;;;;;;5057121;28;19939;-80
2021/11/15 13:21:02;;;;;;;;;;;24.60;48.90;;;;;;5074010;28;20299;-80
2021/11/15 13:23:30;;;;;;;;;;;24.70;48.90;;;;;;5058966;28;19923;-78
2021/11/15 13:25:59;;;;;;;;;;;24.70;48.90;;;;;;5057513;28;19908;-76
2021/11/15 13:28:34;;;;;;;;;;;24.70;48.80;;;;;;5056794;28;19913;-77
2021/11/15 13:31:02;;;;;;;;;;;24.70;49.40;;;;;;5057272;28;19931;-79
2021/11/15 13:33:28;;;;;;;;;;;24.70;48.90;;;;;;5074470;28;19909;-80
2021/11/15 13:35:53;;;;;;;;;;;24.60;49.00;;;;;;5073446;28;19909;-79
2021/11/15 13:38:24;;;;;;;;;;;24.60;48.80;;;;;;5073693;28;19909;-79
2021/11/15 13:40:54;;;;;;;;;;;24.60;49.00;;;;;;5074496;28;19916;-78
2021/11/15 13:43:22;;;;;;;;;;;24.60;49.10;;;;;;5073891;28;20299;-76
2021/11/15 13:45:50;;;;;;;;;;;24.60;49.10;;;;;;5056864;28;19908;-75
2021/11/15 13:48:21;;;;;;;;;;;24.60;49.10;;;;;;5056871;28;19909;-82
2021/11/15 13:50:46;;;;;;;;;;;24.60;49.20;;;;;;5074366;28;20221;-77
2021/11/15 13:53:14;;;;;;;;;;;24.60;49.00;;;;;;5058375;28;20022;-77
2021/11/15 13:55:43;;;;;;;;;;;24.60;48.90;;;;;;5077164;28;19962;-77
2021/11/15 13:58:09;;;;;;;;;;;24.60;48.90;;;;;;5077066;28;19921;-79
2021/11/15 14:00:35;;;;;;;;;;;24.60;49.50;;;;;;5076948;28;19924;-76
2021/11/15 14:03:02;;;;;;;;;;;24.60;48.90;;;;;;5076877;28;20315;-77
2021/11/15 14:05:28;;;;;;;;;;;24.50;49.10;;;;;;5059507;28;19908;-76
2021/11/15 14:07:56;;;;;;;;;;;24.40;49.50;;;;;;5077454;28;19958;-76
2021/11/15 14:10:26;;;;;;;;;;;24.40;49.50;;;;;;5060260;28;19908;-80
2021/11/15 14:12:52;;;;;;;;;;;24.50;49.50;;;;;;5076828;28;19909;-77
2021/11/15 14:15:20;;;;;;;;;;;24.50;49.20;;;;;;5059015;28;19908;-76
